CTV989 WIPP-WIDD
Flight info
| Callsign | CTV989 |
|---|---|
| Flight time | 1h 8m |
| Altitude | 30000 |
| Route | IGUTU |
| Aircraft | A320/M-SDE2E3FGHIRWY/LB1 |
Departure
| Time | 2026-04-22 09:07 |
|---|---|
| Airport | Sultan Mahmud Badaruddin II Airport (WIPP) |
Arrival
| Time | 2026-04-22 10:15 |
|---|---|
| Airport | Hang Nadim International Airport (WIDD) |
| Time | Latitude | Longitude | Altitude | Speed | Heading |
|---|---|---|---|---|---|
| 2026-04-22 08:56 | -2.89634 | 104.70501 | 31 ft | 0 kts | 23° |
| 2026-04-22 09:01 | -2.89651 | 104.70493 | 30 ft | 4 kts | 25° |
| 2026-04-22 09:01 | -2.89676 | 104.70481 | 29 ft | 4 kts | 29° |
| 2026-04-22 09:01 | -2.89699 | 104.70467 | 31 ft | 4 kts | 41° |
| 2026-04-22 09:02 | -2.89713 | 104.70448 | 32 ft | 4 kts | 94° |
| 2026-04-22 09:02 | -2.89713 | 104.70441 | 32 ft | 0 kts | 112° |
| 2026-04-22 09:03 | -2.89715 | 104.70447 | 32 ft | 5 kts | 112° |
| 2026-04-22 09:03 | -2.89742 | 104.70511 | 28 ft | 11 kts | 112° |
| 2026-04-22 09:04 | -2.89791 | 104.70554 | 30 ft | 9 kts | 181° |
| 2026-04-22 09:04 | -2.89851 | 104.70533 | 25 ft | 10 kts | 198° |
| 2026-04-22 09:04 | -2.89909 | 104.70596 | 22 ft | 20 kts | 109° |
| 2026-04-22 09:04 | -2.89967 | 104.70738 | 20 ft | 23 kts | 112° |
| 2026-04-22 09:05 | -2.90033 | 104.70894 | 20 ft | 26 kts | 113° |
| 2026-04-22 09:05 | -2.90089 | 104.71027 | 21 ft | 17 kts | 113° |
| 2026-04-22 09:05 | -2.90186 | 104.71042 | 19 ft | 15 kts | 205° |
| 2026-04-22 09:05 | -2.90250 | 104.70988 | 19 ft | 8 kts | 254° |
| 2026-04-22 09:06 | -2.90243 | 104.70968 | 19 ft | 0 kts | 297° |
| 2026-04-22 09:06 | -2.90197 | 104.70876 | 20 ft | 46 kts | 295° |
| 2026-04-22 09:06 | -2.89982 | 104.70358 | 23 ft | 113 kts | 292° |
| 2026-04-22 09:06 | -2.89608 | 104.69461 | 15 ft | 165 kts | 293° |
| 2026-04-22 09:07 | -2.89140 | 104.68334 | 426 ft | 177 kts | 293° |
| 2026-04-22 09:07 | -2.88656 | 104.67184 | 1049 ft | 181 kts | 293° |
| 2026-04-22 09:07 | -2.88173 | 104.66039 | 1644 ft | 180 kts | 292° |
| 2026-04-22 09:07 | -2.87676 | 104.64801 | 1943 ft | 203 kts | 292° |
| 2026-04-22 09:08 | -2.86996 | 104.63503 | 2202 ft | 227 kts | 315° |
| 2026-04-22 09:08 | -2.85552 | 104.62709 | 2569 ft | 249 kts | 346° |
| 2026-04-22 09:08 | -2.83800 | 104.62430 | 3104 ft | 264 kts | 355° |
| 2026-04-22 09:08 | -2.81952 | 104.62317 | 3919 ft | 269 kts | 357° |
| 2026-04-22 09:09 | -2.80070 | 104.62220 | 4757 ft | 272 kts | 356° |
| 2026-04-22 09:09 | -2.78165 | 104.62087 | 5572 ft | 276 kts | 355° |
| 2026-04-22 09:09 | -2.76238 | 104.61909 | 6363 ft | 280 kts | 353° |
| 2026-04-22 09:09 | -2.74395 | 104.61707 | 6971 ft | 285 kts | 353° |
| 2026-04-22 09:10 | -2.72422 | 104.61466 | 7762 ft | 287 kts | 352° |
| 2026-04-22 09:10 | -2.70430 | 104.61206 | 8526 ft | 290 kts | 352° |
| 2026-04-22 09:10 | -2.68413 | 104.60935 | 9288 ft | 294 kts | 352° |
| 2026-04-22 09:10 | -2.66487 | 104.60675 | 9953 ft | 297 kts | 352° |
| 2026-04-22 09:11 | -2.64395 | 104.60392 | 10342 ft | 314 kts | 352° |
| 2026-04-22 09:11 | -2.62152 | 104.60089 | 10496 ft | 337 kts | 352° |
| 2026-04-22 09:11 | -2.59788 | 104.59769 | 10922 ft | 347 kts | 352° |
| 2026-04-22 09:11 | -2.57446 | 104.59455 | 11502 ft | 352 kts | 352° |
| 2026-04-22 09:12 | -2.55002 | 104.59130 | 12140 ft | 356 kts | 352° |
| 2026-04-22 09:12 | -2.52532 | 104.58858 | 12773 ft | 359 kts | 354° |
| 2026-04-22 09:12 | -2.50024 | 104.58636 | 13395 ft | 363 kts | 355° |
| 2026-04-22 09:12 | -2.47495 | 104.58438 | 13958 ft | 367 kts | 355° |
| 2026-04-22 09:13 | -2.44940 | 104.58244 | 14505 ft | 370 kts | 355° |
| 2026-04-22 09:13 | -2.42363 | 104.58045 | 15050 ft | 373 kts | 355° |
| 2026-04-22 09:13 | -2.39769 | 104.57835 | 15595 ft | 375 kts | 355° |
| 2026-04-22 09:13 | -2.37457 | 104.57642 | 16077 ft | 378 kts | 355° |
| 2026-04-22 09:14 | -2.34833 | 104.57417 | 16610 ft | 380 kts | 355° |
| 2026-04-22 09:14 | -2.32184 | 104.57187 | 17146 ft | 383 kts | 355° |
| 2026-04-22 09:14 | -2.29522 | 104.56956 | 17673 ft | 386 kts | 355° |
| 2026-04-22 09:14 | -2.26836 | 104.56724 | 18183 ft | 389 kts | 355° |
| 2026-04-22 09:15 | -2.24135 | 104.56492 | 18633 ft | 391 kts | 355° |
| 2026-04-22 09:15 | -2.21416 | 104.56260 | 19089 ft | 394 kts | 355° |
| 2026-04-22 09:15 | -2.18790 | 104.56033 | 19521 ft | 396 kts | 355° |
| 2026-04-22 09:15 | -2.16034 | 104.55794 | 19973 ft | 399 kts | 355° |
| 2026-04-22 09:16 | -2.13257 | 104.55553 | 20425 ft | 402 kts | 355° |
| 2026-04-22 09:16 | -2.10461 | 104.55311 | 20881 ft | 404 kts | 355° |
| 2026-04-22 09:16 | -2.07649 | 104.55069 | 21316 ft | 407 kts | 355° |
| 2026-04-22 09:16 | -2.04852 | 104.54828 | 21754 ft | 410 kts | 355° |
| 2026-04-22 09:17 | -2.02001 | 104.54584 | 22185 ft | 413 kts | 355° |
| 2026-04-22 09:17 | -1.99125 | 104.54336 | 22594 ft | 416 kts | 355° |
| 2026-04-22 09:17 | -1.96234 | 104.54088 | 23000 ft | 419 kts | 355° |
| 2026-04-22 09:17 | -1.93318 | 104.53836 | 23390 ft | 422 kts | 355° |
| 2026-04-22 09:18 | -1.90387 | 104.53582 | 23716 ft | 424 kts | 355° |
| 2026-04-22 09:18 | -1.87432 | 104.53328 | 24036 ft | 427 kts | 355° |
| 2026-04-22 09:18 | -1.84463 | 104.53075 | 24354 ft | 429 kts | 355° |
| 2026-04-22 09:18 | -1.81648 | 104.52836 | 24649 ft | 432 kts | 355° |
| 2026-04-22 09:19 | -1.78650 | 104.52579 | 24961 ft | 434 kts | 355° |
| 2026-04-22 09:19 | -1.75635 | 104.52317 | 25270 ft | 436 kts | 355° |
| 2026-04-22 09:19 | -1.72600 | 104.52055 | 25570 ft | 438 kts | 355° |
| 2026-04-22 09:19 | -1.69556 | 104.51794 | 25869 ft | 441 kts | 355° |
| 2026-04-22 09:20 | -1.66495 | 104.51529 | 26162 ft | 443 kts | 355° |
| 2026-04-22 09:20 | -1.63460 | 104.51264 | 26448 ft | 445 kts | 355° |
| 2026-04-22 09:20 | -1.60370 | 104.50999 | 26733 ft | 447 kts | 355° |
| 2026-04-22 09:20 | -1.57272 | 104.50736 | 27012 ft | 449 kts | 355° |
| 2026-04-22 09:21 | -1.54156 | 104.50469 | 27290 ft | 451 kts | 355° |
| 2026-04-22 09:21 | -1.51026 | 104.50199 | 27560 ft | 453 kts | 355° |
| 2026-04-22 09:21 | -1.47879 | 104.49929 | 27835 ft | 454 kts | 355° |
| 2026-04-22 09:21 | -1.44726 | 104.49662 | 28095 ft | 456 kts | 355° |
| 2026-04-22 09:22 | -1.41551 | 104.49391 | 28359 ft | 458 kts | 355° |
| 2026-04-22 09:22 | -1.38369 | 104.49117 | 28612 ft | 460 kts | 355° |
| 2026-04-22 09:22 | -1.35176 | 104.48841 | 28863 ft | 462 kts | 355° |
| 2026-04-22 09:22 | -1.33053 | 104.48657 | 29024 ft | 463 kts | 355° |
| 2026-04-22 09:23 | -1.29841 | 104.48376 | 29254 ft | 465 kts | 355° |
| 2026-04-22 09:23 | -1.25519 | 104.48003 | 29565 ft | 467 kts | 355° |
| 2026-04-22 09:23 | -1.23368 | 104.47818 | 29709 ft | 468 kts | 355° |
| 2026-04-22 09:24 | -1.16956 | 104.47270 | 29813 ft | 453 kts | 355° |
| 2026-04-22 09:24 | -1.10729 | 104.46741 | 29816 ft | 447 kts | 355° |
| 2026-04-22 09:25 | -1.04539 | 104.46210 | 29817 ft | 446 kts | 355° |
| 2026-04-22 09:25 | -0.98360 | 104.45673 | 29814 ft | 446 kts | 355° |
| 2026-04-22 09:26 | -0.92236 | 104.45150 | 29813 ft | 445 kts | 355° |
| 2026-04-22 09:26 | -0.86150 | 104.44630 | 29818 ft | 445 kts | 355° |
| 2026-04-22 09:27 | -0.80026 | 104.44098 | 29817 ft | 445 kts | 355° |
| 2026-04-22 09:27 | -0.73945 | 104.43580 | 29808 ft | 444 kts | 355° |
| 2026-04-22 09:28 | -0.67794 | 104.43050 | 29805 ft | 443 kts | 355° |
| 2026-04-22 09:28 | -0.61646 | 104.42523 | 29804 ft | 443 kts | 355° |
| 2026-04-22 09:29 | -0.55516 | 104.41999 | 29804 ft | 443 kts | 355° |
| 2026-04-22 09:29 | -0.49487 | 104.40852 | 29806 ft | 442 kts | 340° |
| 2026-04-22 09:30 | -0.43772 | 104.38871 | 29811 ft | 442 kts | 340° |
| 2026-04-22 09:30 | -0.37894 | 104.36853 | 29825 ft | 455 kts | 340° |
| 2026-04-22 09:31 | -0.31853 | 104.34787 | 29825 ft | 464 kts | 341° |
| 2026-04-22 09:31 | -0.25735 | 104.32698 | 29824 ft | 465 kts | 341° |
| 2026-04-22 09:32 | -0.19508 | 104.30999 | 29819 ft | 465 kts | 348° |
| 2026-04-22 09:32 | -0.13152 | 104.29768 | 29820 ft | 465 kts | 349° |
| 2026-04-22 09:33 | -0.06791 | 104.28552 | 29820 ft | 466 kts | 349° |
| 2026-04-22 09:33 | -0.00470 | 104.27340 | 29811 ft | 465 kts | 349° |
| 2026-04-22 09:34 | 0.05891 | 104.26117 | 29806 ft | 465 kts | 349° |
| 2026-04-22 09:34 | 0.12252 | 104.24888 | 29804 ft | 465 kts | 349° |
| 2026-04-22 09:35 | 0.21779 | 104.23041 | 29800 ft | 465 kts | 349° |
| 2026-04-22 09:35 | 0.28131 | 104.21825 | 29799 ft | 465 kts | 349° |
| 2026-04-22 09:36 | 0.34483 | 104.20610 | 29803 ft | 465 kts | 349° |
| 2026-04-22 09:36 | 0.37655 | 104.20001 | 29569 ft | 462 kts | 349° |
| 2026-04-22 09:36 | 0.40790 | 104.19395 | 28418 ft | 456 kts | 349° |
| 2026-04-22 09:37 | 0.43886 | 104.18796 | 27324 ft | 450 kts | 349° |
| 2026-04-22 09:37 | 0.46947 | 104.18203 | 26312 ft | 444 kts | 349° |
| 2026-04-22 09:37 | 0.49955 | 104.17620 | 25338 ft | 438 kts | 349° |
| 2026-04-22 09:37 | 0.52924 | 104.17046 | 24401 ft | 432 kts | 349° |
| 2026-04-22 09:38 | 0.55864 | 104.16478 | 23492 ft | 427 kts | 349° |
| 2026-04-22 09:38 | 0.58763 | 104.15924 | 22469 ft | 422 kts | 349° |
| 2026-04-22 09:38 | 0.61630 | 104.15385 | 21556 ft | 415 kts | 349° |
| 2026-04-22 09:38 | 0.64441 | 104.14862 | 20899 ft | 403 kts | 349° |
| 2026-04-22 09:39 | 0.67112 | 104.14365 | 20770 ft | 378 kts | 349° |
| 2026-04-22 09:39 | 0.69638 | 104.13907 | 20423 ft | 361 kts | 353° |
| 2026-04-22 09:39 | 0.72067 | 104.14019 | 20130 ft | 342 kts | 15° |
| 2026-04-22 09:39 | 0.74187 | 104.14924 | 19894 ft | 324 kts | 33° |
| 2026-04-22 09:40 | 0.75869 | 104.16318 | 19668 ft | 307 kts | 49° |
| 2026-04-22 09:40 | 0.77092 | 104.18028 | 19407 ft | 302 kts | 63° |
| 2026-04-22 09:40 | 0.77818 | 104.19975 | 19177 ft | 297 kts | 78° |
| 2026-04-22 09:40 | 0.78016 | 104.21996 | 18841 ft | 297 kts | 93° |
| 2026-04-22 09:41 | 0.77664 | 104.24025 | 18506 ft | 297 kts | 108° |
| 2026-04-22 09:41 | 0.76768 | 104.25880 | 18172 ft | 298 kts | 129° |
| 2026-04-22 09:41 | 0.75140 | 104.27103 | 17795 ft | 296 kts | 161° |
| 2026-04-22 09:41 | 0.73124 | 104.27288 | 17419 ft | 293 kts | 191° |
| 2026-04-22 09:42 | 0.71124 | 104.26868 | 17043 ft | 294 kts | 193° |
| 2026-04-22 09:42 | 0.69118 | 104.26430 | 16683 ft | 295 kts | 193° |
| 2026-04-22 09:42 | 0.67110 | 104.25991 | 16305 ft | 296 kts | 193° |
| 2026-04-22 09:42 | 0.65089 | 104.25548 | 15942 ft | 298 kts | 193° |
| 2026-04-22 09:43 | 0.63033 | 104.25354 | 15580 ft | 299 kts | 173° |
| 2026-04-22 09:43 | 0.60985 | 104.25734 | 15217 ft | 300 kts | 174° |
| 2026-04-22 09:43 | 0.58947 | 104.25488 | 14798 ft | 297 kts | 205° |
| 2026-04-22 09:43 | 0.57363 | 104.24236 | 14340 ft | 292 kts | 237° |
| 2026-04-22 09:44 | 0.56653 | 104.22381 | 13890 ft | 285 kts | 262° |
| 2026-04-22 09:44 | 0.56586 | 104.20424 | 13420 ft | 281 kts | 276° |
| 2026-04-22 09:44 | 0.57029 | 104.18540 | 12909 ft | 278 kts | 293° |
| 2026-04-22 09:44 | 0.58049 | 104.16928 | 12411 ft | 275 kts | 314° |
| 2026-04-22 09:45 | 0.59582 | 104.15821 | 11921 ft | 272 kts | 336° |
| 2026-04-22 09:45 | 0.61398 | 104.15358 | 11448 ft | 269 kts | 351° |
| 2026-04-22 09:45 | 0.63235 | 104.15066 | 10977 ft | 266 kts | 349° |
| 2026-04-22 09:45 | 0.65044 | 104.14748 | 10608 ft | 261 kts | 348° |
| 2026-04-22 09:46 | 0.66823 | 104.14425 | 10366 ft | 260 kts | 348° |
| 2026-04-22 09:46 | 0.68607 | 104.14101 | 10139 ft | 259 kts | 348° |
| 2026-04-22 09:46 | 0.70394 | 104.13779 | 9967 ft | 280 kts | 348° |
| 2026-04-22 09:46 | 0.72384 | 104.13427 | 9792 ft | 296 kts | 348° |
| 2026-04-22 09:47 | 0.74418 | 104.13074 | 9035 ft | 299 kts | 349° |
| 2026-04-22 09:47 | 0.76462 | 104.12721 | 8328 ft | 297 kts | 349° |
| 2026-04-22 09:47 | 0.78434 | 104.12180 | 7697 ft | 291 kts | 335° |
| 2026-04-22 09:47 | 0.80165 | 104.11195 | 7172 ft | 285 kts | 324° |
| 2026-04-22 09:48 | 0.81728 | 104.10127 | 6722 ft | 285 kts | 325° |
| 2026-04-22 09:48 | 0.83379 | 104.09015 | 6305 ft | 285 kts | 325° |
| 2026-04-22 09:48 | 0.85025 | 104.07913 | 5843 ft | 285 kts | 326° |
| 2026-04-22 09:48 | 0.86645 | 104.06830 | 5315 ft | 277 kts | 326° |
| 2026-04-22 09:49 | 0.88242 | 104.05762 | 4841 ft | 277 kts | 326° |
| 2026-04-22 09:49 | 0.89844 | 104.04688 | 4372 ft | 277 kts | 326° |
| 2026-04-22 09:49 | 0.91435 | 104.03618 | 4020 ft | 274 kts | 326° |
| 2026-04-22 09:49 | 0.92964 | 104.02591 | 4005 ft | 255 kts | 326° |
| 2026-04-22 09:50 | 0.94404 | 104.01624 | 3791 ft | 243 kts | 326° |
| 2026-04-22 09:50 | 0.95843 | 104.00829 | 3426 ft | 234 kts | 341° |
| 2026-04-22 09:50 | 0.96871 | 104.00588 | 3255 ft | 225 kts | 354° |
| 2026-04-22 09:52 | 0.97863 | 104.00730 | 3577 ft | 190 kts | 28° |
| 2026-04-22 09:52 | 0.98806 | 104.01573 | 4173 ft | 172 kts | 44° |
| 2026-04-22 09:52 | 0.99672 | 104.02409 | 3760 ft | 184 kts | 44° |
| 2026-04-22 09:52 | 1.00742 | 104.03434 | 3583 ft | 233 kts | 37° |
| 2026-04-22 09:53 | 1.02313 | 104.04203 | 3503 ft | 278 kts | 19° |
| 2026-04-22 09:53 | 1.04083 | 104.05147 | 3507 ft | 288 kts | 40° |
| 2026-04-22 09:53 | 1.05478 | 104.06490 | 3550 ft | 274 kts | 45° |
| 2026-04-22 09:53 | 1.06788 | 104.07850 | 3595 ft | 269 kts | 46° |
| 2026-04-22 09:54 | 1.08036 | 104.09170 | 3640 ft | 265 kts | 49° |
| 2026-04-22 09:54 | 1.08946 | 104.10747 | 3611 ft | 265 kts | 72° |
| 2026-04-22 09:54 | 1.09125 | 104.12565 | 3476 ft | 259 kts | 98° |
| 2026-04-22 09:54 | 1.08573 | 104.14212 | 3403 ft | 245 kts | 121° |
| 2026-04-22 09:55 | 1.07487 | 104.15453 | 3263 ft | 233 kts | 143° |
| 2026-04-22 09:55 | 1.06063 | 104.16176 | 2999 ft | 229 kts | 165° |
| 2026-04-22 09:55 | 1.04486 | 104.16328 | 2695 ft | 228 kts | 185° |
| 2026-04-22 09:55 | 1.02900 | 104.16207 | 2394 ft | 228 kts | 184° |
| 2026-04-22 09:56 | 1.01317 | 104.16100 | 2063 ft | 228 kts | 184° |
| 2026-04-22 09:56 | 0.99749 | 104.15999 | 1977 ft | 226 kts | 183° |
| 2026-04-22 09:56 | 0.98172 | 104.15899 | 1981 ft | 227 kts | 183° |
| 2026-04-22 09:56 | 0.96596 | 104.15799 | 1988 ft | 227 kts | 183° |
| 2026-04-22 09:57 | 0.95017 | 104.15693 | 1988 ft | 227 kts | 184° |
| 2026-04-22 09:57 | 0.93444 | 104.15573 | 1988 ft | 227 kts | 184° |
| 2026-04-22 09:57 | 0.91870 | 104.15465 | 1989 ft | 227 kts | 183° |
| 2026-04-22 09:57 | 0.90295 | 104.15366 | 1991 ft | 227 kts | 183° |
| 2026-04-22 09:58 | 0.88720 | 104.15269 | 1991 ft | 227 kts | 183° |
| 2026-04-22 09:58 | 0.87145 | 104.15172 | 1990 ft | 227 kts | 183° |
| 2026-04-22 09:58 | 0.85572 | 104.15074 | 1994 ft | 226 kts | 183° |
| 2026-04-22 09:58 | 0.84001 | 104.14977 | 1993 ft | 226 kts | 183° |
| 2026-04-22 09:59 | 0.82449 | 104.14887 | 1993 ft | 226 kts | 183° |
| 2026-04-22 09:59 | 0.80926 | 104.14804 | 2000 ft | 226 kts | 183° |
| 2026-04-22 09:59 | 0.79354 | 104.14719 | 2000 ft | 226 kts | 183° |
| 2026-04-22 09:59 | 0.77780 | 104.14634 | 1996 ft | 226 kts | 183° |
| 2026-04-22 10:00 | 0.76209 | 104.14549 | 1999 ft | 226 kts | 183° |
| 2026-04-22 10:00 | 0.74685 | 104.14468 | 1999 ft | 226 kts | 183° |
| 2026-04-22 10:00 | 0.73117 | 104.14384 | 1997 ft | 226 kts | 183° |
| 2026-04-22 10:00 | 0.71546 | 104.14302 | 1997 ft | 226 kts | 183° |
| 2026-04-22 10:01 | 0.69976 | 104.14222 | 1997 ft | 226 kts | 183° |
| 2026-04-22 10:01 | 0.68408 | 104.14228 | 1999 ft | 226 kts | 173° |
| 2026-04-22 10:01 | 0.66855 | 104.14453 | 2001 ft | 226 kts | 171° |
| 2026-04-22 10:01 | 0.65307 | 104.14718 | 1998 ft | 226 kts | 170° |
| 2026-04-22 10:02 | 0.63759 | 104.14990 | 1996 ft | 226 kts | 170° |
| 2026-04-22 10:02 | 0.62239 | 104.15258 | 1995 ft | 226 kts | 170° |
| 2026-04-22 10:02 | 0.60745 | 104.15695 | 1996 ft | 225 kts | 148° |
| 2026-04-22 10:02 | 0.59692 | 104.16814 | 1996 ft | 224 kts | 114° |
| 2026-04-22 10:03 | 0.59442 | 104.18326 | 1997 ft | 223 kts | 79° |
| 2026-04-22 10:03 | 0.60081 | 104.19714 | 1995 ft | 222 kts | 45° |
| 2026-04-22 10:03 | 0.61383 | 104.20499 | 1995 ft | 221 kts | 11° |
| 2026-04-22 10:03 | 0.62895 | 104.20415 | 1997 ft | 221 kts | 338° |
| 2026-04-22 10:04 | 0.64095 | 104.19504 | 1997 ft | 221 kts | 301° |
| 2026-04-22 10:04 | 0.64589 | 104.18061 | 1998 ft | 222 kts | 281° |
| 2026-04-22 10:04 | 0.64890 | 104.16540 | 1996 ft | 223 kts | 284° |
| 2026-04-22 10:04 | 0.65604 | 104.15190 | 1994 ft | 222 kts | 315° |
| 2026-04-22 10:05 | 0.66900 | 104.14383 | 1995 ft | 222 kts | 345° |
| 2026-04-22 10:05 | 0.68412 | 104.14085 | 1997 ft | 222 kts | 350° |
| 2026-04-22 10:05 | 0.69944 | 104.13822 | 1863 ft | 225 kts | 350° |
| 2026-04-22 10:05 | 0.71463 | 104.13565 | 1739 ft | 221 kts | 351° |
| 2026-04-22 10:06 | 0.72977 | 104.13310 | 1696 ft | 221 kts | 351° |
| 2026-04-22 10:06 | 0.74493 | 104.13053 | 1663 ft | 220 kts | 351° |
| 2026-04-22 10:06 | 0.76008 | 104.12794 | 1686 ft | 221 kts | 350° |
| 2026-04-22 10:06 | 0.77503 | 104.12535 | 1693 ft | 221 kts | 348° |
| 2026-04-22 10:07 | 0.78958 | 104.11999 | 1696 ft | 221 kts | 330° |
| 2026-04-22 10:07 | 0.80237 | 104.11144 | 1690 ft | 222 kts | 326° |
| 2026-04-22 10:07 | 0.81495 | 104.10293 | 1694 ft | 221 kts | 326° |
| 2026-04-22 10:07 | 0.82774 | 104.09433 | 1696 ft | 221 kts | 327° |
| 2026-04-22 10:08 | 0.84051 | 104.08576 | 1687 ft | 221 kts | 326° |
| 2026-04-22 10:08 | 0.85327 | 104.07717 | 1687 ft | 221 kts | 326° |
| 2026-04-22 10:08 | 0.86605 | 104.06858 | 1684 ft | 221 kts | 327° |
| 2026-04-22 10:08 | 0.87886 | 104.06000 | 1683 ft | 221 kts | 327° |
| 2026-04-22 10:09 | 0.89164 | 104.05144 | 1689 ft | 221 kts | 327° |
| 2026-04-22 10:09 | 0.90417 | 104.04303 | 1677 ft | 210 kts | 327° |
| 2026-04-22 10:09 | 0.91604 | 104.03503 | 1678 ft | 203 kts | 327° |
| 2026-04-22 10:09 | 0.92763 | 104.02725 | 1681 ft | 200 kts | 327° |
| 2026-04-22 10:10 | 0.93914 | 104.01952 | 1680 ft | 199 kts | 327° |
| 2026-04-22 10:10 | 0.95057 | 104.01185 | 1686 ft | 198 kts | 327° |
| 2026-04-22 10:10 | 0.96250 | 104.00513 | 1679 ft | 197 kts | 341° |
| 2026-04-22 10:10 | 0.97593 | 104.00277 | 1687 ft | 196 kts | 2° |
| 2026-04-22 10:11 | 0.98926 | 104.00535 | 1676 ft | 196 kts | 23° |
| 2026-04-22 10:11 | 1.00064 | 104.01265 | 1686 ft | 195 kts | 41° |
| 2026-04-22 10:11 | 1.01083 | 104.02165 | 1682 ft | 196 kts | 41° |
| 2026-04-22 10:11 | 1.02103 | 104.03064 | 1689 ft | 195 kts | 41° |
| 2026-04-22 10:12 | 1.03108 | 104.03950 | 1711 ft | 185 kts | 41° |
| 2026-04-22 10:12 | 1.04020 | 104.04755 | 1681 ft | 164 kts | 41° |
| 2026-04-22 10:12 | 1.04841 | 104.05479 | 1538 ft | 151 kts | 41° |
| 2026-04-22 10:12 | 1.05605 | 104.06153 | 1425 ft | 145 kts | 41° |
| 2026-04-22 10:13 | 1.06349 | 104.06809 | 1237 ft | 142 kts | 41° |
| 2026-04-22 10:13 | 1.07084 | 104.07458 | 1054 ft | 140 kts | 42° |
| 2026-04-22 10:13 | 1.07815 | 104.08102 | 894 ft | 140 kts | 42° |
| 2026-04-22 10:13 | 1.08537 | 104.08740 | 717 ft | 140 kts | 42° |
| 2026-04-22 10:14 | 1.09267 | 104.09380 | 565 ft | 139 kts | 42° |
| 2026-04-22 10:14 | 1.09993 | 104.10025 | 402 ft | 140 kts | 42° |
| 2026-04-22 10:14 | 1.10721 | 104.10667 | 211 ft | 139 kts | 43° |
| 2026-04-22 10:14 | 1.11431 | 104.11280 | 140 ft | 125 kts | 49° |
| 2026-04-22 10:15 | 1.11962 | 104.11763 | 136 ft | 79 kts | 41° |
| 2026-04-22 10:15 | 1.12279 | 104.12041 | 138 ft | 38 kts | 41° |
| 2026-04-22 10:15 | 1.12456 | 104.12182 | 137 ft | 30 kts | 27° |
| 2026-04-22 10:15 | 1.12610 | 104.12228 | 136 ft | 20 kts | 17° |
| 2026-04-22 10:16 | 1.12717 | 104.12231 | 136 ft | 10 kts | 314° |
| 2026-04-22 10:16 | 1.12694 | 104.12185 | 137 ft | 8 kts | 222° |
| 2026-04-22 10:16 | 1.12639 | 104.12136 | 137 ft | 14 kts | 221° |
| 2026-04-22 10:16 | 1.12588 | 104.12091 | 137 ft | 14 kts | 221° |
| 2026-04-22 10:17 | 1.12497 | 104.12011 | 137 ft | 12 kts | 219° |
| 2026-04-22 10:17 | 1.12458 | 104.11975 | 137 ft | 11 kts | 222° |
| 2026-04-22 10:17 | 1.12405 | 104.11929 | 137 ft | 9 kts | 221° |
| 2026-04-22 10:17 | 1.12358 | 104.11888 | 138 ft | 8 kts | 221° |
| 2026-04-22 10:18 | 1.12326 | 104.11849 | 138 ft | 8 kts | 256° |
| 2026-04-22 10:18 | 1.12356 | 104.11798 | 137 ft | 10 kts | 314° |
| 2026-04-22 10:18 | 1.12403 | 104.11750 | 137 ft | 8 kts | 310° |
| 2026-04-22 10:18 | 1.12419 | 104.11731 | 137 ft | 0 kts | 312° |
| 2026-04-22 10:19 | 1.12420 | 104.11730 | 137 ft | 0 kts | 312° |
| 2026-04-22 10:19 | 1.12421 | 104.11729 | 137 ft | 0 kts | 312° |
| 2026-04-22 10:20 | 1.12421 | 104.11728 | 137 ft | 0 kts | 312° |